Time;durP1;ratioP1;P1;durP2;ratioP2;P2;SDS_P1;SDS_P2;PMS_P1;PMS_P2;Temp;Humidity;BMP_temperature;BMP_pressure;BME280_temperature;BME280_humidity;BME280_pressure;Samples;Min_cycle;Max_cycle;Signal;HPM_P1;HPM_P2
2022/12/24 00:02:13;;;;;;;31.73;3.40;;;;;;;9.66;99.78;100392.53;4959421;28;20083;-79
2022/12/24 00:04:38;;;;;;;23.25;3.10;;;;;;;9.70;99.32;100412.78;4931988;28;20043;-77
2022/12/24 00:07:04;;;;;;;36.85;3.55;;;;;;;9.64;99.20;100405.66;4929787;28;20032;-78
2022/12/24 00:09:29;;;;;;;25.15;3.60;;;;;;;9.58;99.70;100402.91;4925926;28;20058;-77
2022/12/24 00:11:55;;;;;;;34.35;4.00;;;;;;;9.54;100.00;100410.97;4925900;29;20576;-77
2022/12/24 00:14:21;;;;;;;35.08;4.40;;;;;;;9.59;100.00;100401.91;4919948;28;20051;-77
2022/12/24 00:16:46;;;;;;;38.22;4.68;;;;;;;9.57;99.56;100407.28;4931195;28;20043;-78
2022/12/24 00:19:12;;;;;;;27.58;3.60;;;;;;;9.57;99.95;100412.44;4925678;28;20040;-78
2022/12/24 00:21:38;;;;;;;19.80;4.30;;;;;;;9.52;100.00;100406.94;4921471;29;20047;-78
2022/12/24 00:24:04;;;;;;;37.55;6.07;;;;;;;9.55;100.00;100401.44;4929059;28;20048;-78
2022/12/24 00:26:31;;;;;;;35.97;4.50;;;;;;;9.54;100.00;100402.41;4925588;29;20043;-77
2022/12/24 00:28:57;;;;;;;33.30;5.43;;;;;;;9.49;100.00;100408.06;4929635;28;20078;-78
2022/12/24 00:31:22;;;;;;;33.65;6.25;;;;;;;9.34;100.00;100397.50;4928870;28;20024;-77
2022/12/24 00:33:48;;;;;;;28.83;4.22;;;;;;;9.30;100.00;100409.13;4928132;28;20547;-78
2022/12/24 00:36:14;;;;;;;32.05;4.55;;;;;;;9.27;100.00;100406.88;4933775;29;20039;-78
2022/12/24 00:38:40;;;;;;;23.15;3.40;;;;;;;9.24;100.00;100412.34;4932134;28;20027;-78
2022/12/24 00:41:23;;;;;;;37.65;3.90;;;;;;;9.29;100.00;100417.88;4930960;29;20031;-77
2022/12/24 00:44:09;;;;;;;35.95;4.80;;;;;;;9.28;100.00;100420.59;4929149;28;20046;-78
2022/12/24 00:46:36;;;;;;;36.17;5.10;;;;;;;9.23;100.00;100418.50;4960462;28;20751;-77
2022/12/24 00:49:02;;;;;;;26.10;3.30;;;;;;;9.21;100.00;100417.03;4930128;28;20106;-78
2022/12/24 00:51:28;;;;;;;35.58;5.97;;;;;;;9.22;100.00;100434.16;4943551;28;20046;-77
2022/12/24 00:53:54;;;;;;;39.97;4.18;;;;;;;9.22;100.00;100432.38;4913358;28;20123;-78
2022/12/24 00:56:19;;;;;;;31.45;3.88;;;;;;;9.16;100.00;100428.66;4928890;29;20084;-78
2022/12/24 00:58:45;;;;;;;37.90;4.32;;;;;;;9.20;100.00;100436.09;4922626;28;20070;-77
2022/12/24 01:01:11;;;;;;;29.80;4.20;;;;;;;9.16;100.00;100449.34;4941806;28;20047;-77
2022/12/24 01:03:36;;;;;;;37.17;4.43;;;;;;;9.21;100.00;100461.00;4939979;28;20118;-77
2022/12/24 01:06:03;;;;;;;28.60;4.70;;;;;;;9.24;100.00;100465.88;4926976;29;20028;-77
2022/12/24 01:08:28;;;;;;;36.72;5.75;;;;;;;9.13;100.00;100475.50;4957356;28;20709;-77
2022/12/24 01:10:54;;;;;;;35.47;4.30;;;;;;;9.21;100.00;100469.59;4929041;28;20048;-76
2022/12/24 01:13:19;;;;;;;22.77;3.63;;;;;;;9.20;100.00;100475.72;4944592;28;20404;-78
2022/12/24 01:15:45;;;;;;;31.60;3.75;;;;;;;9.20;100.00;100477.50;4928847;28;20043;-77
2022/12/24 01:18:10;;;;;;;41.28;4.22;;;;;;;9.10;100.00;100480.22;4940854;28;20043;-77
2022/12/24 01:20:35;;;;;;;31.48;5.85;;;;;;;9.12;100.00;100483.44;4927007;28;20043;-78
2022/12/24 01:23:01;;;;;;;37.25;4.40;;;;;;;9.00;100.00;100485.47;4954964;28;20114;-78
2022/12/24 01:25:27;;;;;;;29.17;4.95;;;;;;;9.04;100.00;100489.41;4925072;28;20047;-77
2022/12/24 01:27:52;;;;;;;39.92;5.05;;;;;;;8.92;100.00;100488.00;4915893;28;1081905;-77
2022/12/24 01:30:17;;;;;;;30.52;4.47;;;;;;;9.05;100.00;100493.59;4947052;28;20051;-77
2022/12/24 01:32:43;;;;;;;24.27;4.05;;;;;;;8.98;100.00;100484.81;4947994;28;20059;-77
2022/12/24 01:35:09;;;;;;;27.17;3.95;;;;;;;8.90;100.00;100493.34;4926069;28;20493;-77
2022/12/24 01:37:34;;;;;;;37.05;3.75;;;;;;;8.84;100.00;100496.53;4941448;28;20067;-78
2022/12/24 01:45:42;;;;;;;39.00;4.93;;;;;;;8.85;100.00;100492.97;4955928;28;20051;-78
2022/12/24 01:48:37;;;;;;;48.85;4.03;;;;;;;8.84;100.00;100495.72;4933531;29;20063;-78
2022/12/24 01:51:17;;;;;;;40.75;4.30;;;;;;;8.79;100.00;100490.19;4955482;28;20051;-76
2022/12/24 01:53:47;;;;;;;34.90;4.05;;;;;;;8.84;100.00;100490.56;4939449;28;20055;-77
2022/12/24 01:56:14;;;;;;;35.53;4.00;;;;;;;8.81;100.00;100496.81;4941479;28;20437;-77
2022/12/24 01:58:44;;;;;;;26.67;4.65;;;;;;;8.73;100.00;100499.38;4959423;28;20666;-78
2022/12/24 02:01:09;;;;;;;37.92;4.43;;;;;;;8.81;100.00;100501.19;4948453;28;21103;-79
2022/12/24 02:03:35;;;;;;;42.22;4.18;;;;;;;8.81;100.00;100491.66;4957841;28;20052;-79
2022/12/24 02:06:01;;;;;;;41.92;5.00;;;;;;;8.85;100.00;100510.25;4953213;28;20035;-78
2022/12/24 02:08:38;;;;;;;29.10;4.00;;;;;;;8.75;100.00;100505.19;4943915;28;20062;-78
2022/12/24 02:11:14;;;;;;;44.88;4.40;;;;;;;8.83;100.00;100502.66;4933385;29;20098;-78
2022/12/24 02:13:43;;;;;;;39.83;4.50;;;;;;;8.85;100.00;100505.09;4944303;28;20062;-78
2022/12/24 02:16:24;;;;;;;39.00;4.10;;;;;;;8.76;100.00;100506.84;4929090;29;20024;-79
2022/12/24 02:19:22;;;;;;;35.97;4.53;;;;;;;8.68;100.00;100511.94;4925204;28;20043;-78
2022/12/24 02:21:54;;;;;;;44.50;4.10;;;;;;;8.75;100.00;100516.34;4933720;29;20123;-79
2022/12/24 02:24:59;;;;;;;29.30;3.70;;;;;;;8.81;100.00;100525.25;4935367;28;20040;-78
2022/12/24 02:27:49;;;;;;;30.85;3.65;;;;;;;8.75;100.00;100528.47;4946717;28;20043;-78
2022/12/24 02:30:22;;;;;;;26.88;3.40;;;;;;;8.81;100.00;100534.81;4927589;28;20040;-77
2022/12/24 02:32:48;;;;;;;31.85;3.75;;;;;;;8.80;100.00;100540.94;4941439;28;20036;-78
2022/12/24 02:35:19;;;;;;;31.90;3.47;;;;;;;8.70;100.00;100539.25;4958214;28;20178;-78
2022/12/24 02:38:01;;;;;;;31.95;3.88;;;;;;;8.74;100.00;100545.75;4934164;29;20031;-78
2022/12/24 02:40:32;;;;;;;34.03;4.03;;;;;;;8.76;100.00;100559.34;4940313;28;20074;-78
2022/12/24 02:43:02;;;;;;;31.33;3.97;;;;;;;8.74;100.00;100563.06;4925877;29;20042;-77
2022/12/24 02:45:30;;;;;;;34.60;3.30;;;;;;;8.69;100.00;100563.47;4930273;28;20041;-78
2022/12/24 02:47:57;;;;;;;41.53;5.88;;;;;;;8.70;100.00;100557.38;4955532;28;20771;-78
2022/12/24 02:50:23;;;;;;;35.53;3.47;;;;;;;8.66;100.00;100561.19;4930256;28;20087;-77
2022/12/24 02:52:49;;;;;;;41.67;5.35;;;;;;;8.69;100.00;100565.25;4940285;28;20043;-78
2022/12/24 02:55:23;;;;;;;30.58;4.97;;;;;;;8.73;100.00;100567.38;4929306;29;20049;-78
2022/12/24 02:58:08;;;;;;;27.42;3.63;;;;;;;8.70;100.00;100566.88;4926366;29;20523;-76
2022/12/24 03:00:48;;;;;;;33.05;5.50;;;;;;;8.79;100.00;100581.50;4958645;28;21069;-78
2022/12/24 03:03:32;;;;;;;27.08;4.47;;;;;;;8.68;100.00;100579.13;4931641;28;20046;-77
2022/12/24 03:06:15;;;;;;;35.22;4.18;;;;;;;8.76;100.00;100571.47;4959490;28;20051;-78
2022/12/24 03:08:54;;;;;;;25.88;3.40;;;;;;;8.77;100.00;100567.91;4927863;28;20159;-78
2022/12/24 03:11:19;;;;;;;26.05;4.20;;;;;;;8.75;100.00;100572.41;4931264;29;20485;-78
2022/12/24 03:13:47;;;;;;;28.88;3.80;;;;;;;8.72;100.00;100567.53;4929257;28;20160;-77
2022/12/24 03:16:16;;;;;;;29.65;3.80;;;;;;;8.75;100.00;100567.25;4940222;28;20032;-78
2022/12/24 03:18:46;;;;;;;28.05;3.40;;;;;;;8.76;100.00;100574.84;4930841;28;20036;-78
2022/12/24 03:21:22;;;;;;;26.30;2.88;;;;;;;8.82;100.00;100588.16;4967398;28;20460;-77
2022/12/24 03:23:48;;;;;;;25.90;3.42;;;;;;;8.81;100.00;100581.34;4932772;28;20041;-78
2022/12/24 03:26:16;;;;;;;27.00;2.97;;;;;;;8.82;100.00;100581.19;4935908;28;20032;-78
2022/12/24 03:28:42;;;;;;;16.88;2.70;;;;;;;8.83;100.00;100585.38;4959438;28;20041;-78
2022/12/24 03:31:08;;;;;;;28.83;4.28;;;;;;;8.89;100.00;100584.81;4932523;29;20036;-77
2022/12/24 03:33:34;;;;;;;18.80;2.50;;;;;;;8.98;100.00;100593.44;4945339;28;20060;-79
2022/12/24 03:36:00;;;;;;;32.88;3.28;;;;;;;8.95;100.00;100589.38;4960817;28;20735;-78
2022/12/24 03:38:25;;;;;;;20.45;2.53;;;;;;;8.93;100.00;100588.72;4945451;28;20032;-78
2022/12/24 03:40:51;;;;;;;33.20;3.22;;;;;;;8.88;100.00;100590.94;4956879;28;20095;-78
2022/12/24 03:43:16;;;;;;;29.55;3.65;;;;;;;8.90;100.00;100594.19;4947127;28;20046;-77
2022/12/24 03:45:41;;;;;;;21.98;3.47;;;;;;;8.83;100.00;100608.66;4960432;28;20039;-77
2022/12/24 03:48:07;;;;;;;29.88;3.55;;;;;;;8.92;100.00;100604.38;4915866;29;20048;-78
2022/12/24 03:50:32;;;;;;;16.05;2.60;;;;;;;8.86;100.00;100613.53;4956262;28;20413;-78
2022/12/24 03:52:58;;;;;;;14.63;2.40;;;;;;;8.86;100.00;100607.56;4928718;29;20118;-78
2022/12/24 03:55:23;;;;;;;19.13;2.67;;;;;;;8.86;100.00;100612.75;4935181;28;20051;-77
2022/12/24 03:57:49;;;;;;;21.50;3.28;;;;;;;8.86;100.00;100613.53;4922011;29;20050;-77
2022/12/24 04:00:15;;;;;;;21.73;2.40;;;;;;;8.86;100.00;100615.31;4927881;28;20059;-77
2022/12/24 04:02:41;;;;;;;19.77;2.78;;;;;;;8.80;100.00;100626.25;4927100;28;20751;-77
2022/12/24 04:05:09;;;;;;;23.63;2.65;;;;;;;8.90;100.00;100620.03;4929121;28;20557;-77
2022/12/24 04:07:35;;;;;;;22.60;2.83;;;;;;;8.88;100.00;100627.13;4927195;29;20507;-78
2022/12/24 04:10:00;;;;;;;22.13;2.70;;;;;;;8.82;100.00;100627.75;4929104;28;20055;-78
2022/12/24 04:12:26;;;;;;;20.33;2.35;;;;;;;8.89;100.00;100635.69;4927748;29;20078;-77
2022/12/24 04:14:51;;;;;;;19.13;2.30;;;;;;;8.79;100.00;100622.84;4963985;28;20051;-79
2022/12/24 04:17:17;;;;;;;26.98;2.50;;;;;;;8.93;100.00;100626.72;4965145;28;20477;-78
2022/12/24 04:19:42;;;;;;;29.80;3.20;;;;;;;8.83;100.00;100628.53;4933454;28;20304;-77
2022/12/24 04:22:08;;;;;;;21.08;2.55;;;;;;;8.83;100.00;100634.53;4939073;28;20043;-78
2022/12/24 04:24:33;;;;;;;19.77;2.72;;;;;;;8.79;100.00;100646.13;4922317;28;20032;-78
2022/12/24 04:26:59;;;;;;;22.05;2.88;;;;;;;8.93;100.00;100644.81;4930585;29;20477;-77
2022/12/24 04:29:24;;;;;;;21.60;2.70;;;;;;;8.79;100.00;100647.91;4945577;28;20043;-77
2022/12/24 04:31:49;;;;;;;27.05;3.45;;;;;;;8.81;100.00;100654.53;4934476;29;20098;-77
2022/12/24 04:34:15;;;;;;;16.92;2.83;;;;;;;8.77;100.00;100659.19;4912771;28;20056;-77
2022/12/24 04:36:40;;;;;;;28.30;3.22;;;;;;;8.83;100.00;100644.84;4953311;28;20047;-77
2022/12/24 04:39:06;;;;;;;17.20;2.25;;;;;;;8.75;100.00;100657.72;4930915;28;20051;-78
2022/12/24 04:41:31;;;;;;;26.33;2.80;;;;;;;8.80;100.00;100655.53;4955746;28;20043;-78
2022/12/24 04:43:57;;;;;;;23.25;2.42;;;;;;;8.83;100.00;100662.16;4929367;28;20083;-77
2022/12/24 04:46:25;;;;;;;17.50;2.95;;;;;;;8.73;100.00;100668.22;4927042;29;20028;-77
2022/12/24 04:48:52;;;;;;;23.75;3.00;;;;;;;8.79;100.00;100668.59;4937883;28;20051;-77
2022/12/24 04:51:18;;;;;;;26.15;2.67;;;;;;;8.71;100.00;100669.31;4933067;29;20115;-78
2022/12/24 04:53:43;;;;;;;20.42;2.63;;;;;;;8.77;100.00;100672.13;4968767;28;20085;-77
2022/12/24 04:56:20;;;;;;;20.27;2.60;;;;;;;8.86;100.00;100677.38;4929130;28;20032;-77
2022/12/24 04:58:46;;;;;;;26.60;3.47;;;;;;;8.82;100.00;100674.28;4956922;28;20042;-77
2022/12/24 05:01:24;;;;;;;23.45;3.63;;;;;;;8.99;100.00;100680.41;4945815;28;20396;-77
2022/12/24 05:03:50;;;;;;;17.55;3.28;;;;;;;8.97;100.00;100674.59;4931980;28;20098;-77
2022/12/24 05:06:20;;;;;;;25.75;2.90;;;;;;;8.97;100.00;100677.16;4934490;29;20036;-76
2022/12/24 05:08:45;;;;;;;30.80;3.30;;;;;;;8.90;100.00;100687.28;4921631;28;20107;-77
2022/12/24 05:11:13;;;;;;;21.05;3.10;;;;;;;8.85;100.00;100683.50;4928787;29;20032;-77
2022/12/24 05:13:40;;;;;;;27.40;3.42;;;;;;;8.85;100.00;100688.69;4962729;28;20042;-77
2022/12/24 05:16:06;;;;;;;14.45;3.40;;;;;;;8.86;100.00;100688.53;4935018;28;20035;-77
2022/12/24 05:18:31;;;;;;;13.93;2.58;;;;;;;8.77;100.00;100686.81;4947446;28;20639;-78
2022/12/24 05:20:57;;;;;;;17.63;3.10;;;;;;;8.72;100.00;100679.53;4930220;29;20129;-77
2022/12/24 05:26:40;;;;;;;23.10;3.30;;;;;;;8.75;100.00;100699.91;4926166;29;20056;-77
2022/12/24 05:29:06;;;;;;;17.17;3.28;;;;;;;8.82;100.00;100704.50;4928113;28;20051;-78
2022/12/24 05:31:33;;;;;;;18.65;2.40;;;;;;;8.82;100.00;100702.72;4930183;29;20047;-77
2022/12/24 05:33:59;;;;;;;21.27;2.55;;;;;;;8.81;100.00;100702.88;4930556;28;20139;-78
2022/12/24 05:36:24;;;;;;;18.10;3.50;;;;;;;8.81;100.00;100705.44;4928153;28;20119;-78
2022/12/24 05:38:50;;;;;;;30.50;3.80;;;;;;;8.80;100.00;100706.41;4930876;28;20057;-78
2022/12/24 05:41:16;;;;;;;18.10;2.67;;;;;;;8.77;100.00;100705.72;4930422;29;20493;-78
2022/12/24 05:43:41;;;;;;;26.75;2.75;;;;;;;8.97;100.00;100703.03;4931293;28;20095;-77
2022/12/24 05:46:09;;;;;;;24.23;4.13;;;;;;;8.88;100.00;100709.88;4942435;28;20098;-77
2022/12/24 05:48:34;;;;;;;31.17;4.95;;;;;;;8.98;100.00;100717.56;4930878;28;20074;-77
2022/12/24 05:51:04;;;;;;;29.48;4.43;;;;;;;9.06;100.00;100722.00;4958213;28;20055;-78
2022/12/24 05:53:30;;;;;;;17.75;2.83;;;;;;;9.00;100.00;100723.41;4961563;28;20028;-77
2022/12/24 05:56:05;;;;;;;19.25;3.65;;;;;;;9.01;100.00;100714.69;4935219;29;20055;-78
2022/12/24 05:58:31;;;;;;;24.60;3.53;;;;;;;9.02;100.00;100718.91;4925777;28;20119;-78
2022/12/24 06:00:56;;;;;;;28.90;4.28;;;;;;;8.95;100.00;100725.63;4955842;28;20044;-78
2022/12/24 06:03:22;;;;;;;15.45;2.92;;;;;;;8.91;100.00;100725.13;4942964;28;20064;-78
2022/12/24 06:05:47;;;;;;;28.45;3.95;;;;;;;8.92;100.00;100733.69;4930959;28;20044;-78
2022/12/24 06:08:13;;;;;;;22.67;3.10;;;;;;;8.89;100.00;100739.97;4927517;29;20039;-77
2022/12/24 06:10:38;;;;;;;26.75;4.15;;;;;;;8.87;100.00;100746.22;4925200;28;20040;-78
2022/12/24 06:13:03;;;;;;;25.65;4.28;;;;;;;8.95;100.00;100746.34;4929772;29;20613;-78
2022/12/24 06:15:29;;;;;;;27.23;5.03;;;;;;;8.94;100.00;100749.88;4930164;28;20063;-78
2022/12/24 06:17:54;;;;;;;27.67;4.03;;;;;;;9.04;100.00;100749.78;4925445;28;20039;-77
2022/12/24 06:20:20;;;;;;;21.80;3.83;;;;;;;9.00;100.00;100736.34;4923233;28;20068;-78
2022/12/24 06:22:45;;;;;;;31.00;3.83;;;;;;;8.95;100.00;100741.16;4932563;28;20081;-78
2022/12/24 06:25:11;;;;;;;26.15;4.47;;;;;;;8.84;100.00;100733.59;4922713;28;20040;-77
2022/12/24 06:27:37;;;;;;;26.35;3.80;;;;;;;8.89;100.00;100747.72;4945578;28;20492;-78
2022/12/24 06:30:02;;;;;;;25.30;2.97;;;;;;;8.82;100.00;100761.38;4930208;28;20040;-78
2022/12/24 06:32:28;;;;;;;33.20;3.92;;;;;;;8.91;100.00;100747.56;4950680;28;20118;-78
2022/12/24 06:34:53;;;;;;;24.45;3.60;;;;;;;8.83;100.00;100750.88;4922215;28;20044;-78
2022/12/24 06:37:19;;;;;;;35.03;3.92;;;;;;;8.86;100.00;100750.59;4955308;28;20036;-78
2022/12/24 06:39:45;;;;;;;32.40;4.18;;;;;;;8.88;100.00;100746.09;4960911;28;20031;-78
2022/12/24 06:42:12;;;;;;;30.20;3.53;;;;;;;8.89;100.00;100746.88;4964480;28;20088;-78
2022/12/24 06:44:37;;;;;;;29.08;3.50;;;;;;;8.89;100.00;100741.72;4931530;28;20036;-78
2022/12/24 06:47:02;;;;;;;31.90;4.07;;;;;;;8.88;100.00;100753.03;4945528;28;20106;-77
2022/12/24 06:49:28;;;;;;;37.80;4.95;;;;;;;8.82;100.00;100763.97;4956328;28;20047;-78
2022/12/24 06:51:53;;;;;;;31.38;4.25;;;;;;;8.77;100.00;100765.19;4924876;29;20040;-78
2022/12/24 06:54:19;;;;;;;37.17;4.20;;;;;;;8.77;100.00;100772.16;4930081;28;20445;-78
2022/12/24 06:56:44;;;;;;;26.95;3.85;;;;;;;8.75;100.00;100781.81;4944217;28;20039;-77
2022/12/24 06:59:10;;;;;;;34.92;3.85;;;;;;;8.81;100.00;100783.00;4936422;28;20047;-78
2022/12/24 07:01:35;;;;;;;27.42;5.13;;;;;;;8.83;100.00;100776.72;4956791;28;20048;-77
2022/12/24 07:04:00;;;;;;;25.85;4.70;;;;;;;8.89;100.00;100777.94;4931938;28;20624;-77
2022/12/24 07:06:28;;;;;;;32.92;4.28;;;;;;;8.71;100.00;100778.72;4953157;28;20043;-77
2022/12/24 07:08:54;;;;;;;41.47;4.80;;;;;;;8.75;100.00;100777.47;4930426;28;20051;-76
2022/12/24 07:11:20;;;;;;;34.10;4.32;;;;;;;8.68;100.00;100780.75;4938055;29;20055;-78
2022/12/24 07:13:46;;;;;;;25.10;3.88;;;;;;;8.80;100.00;100781.38;4915711;28;20035;-78
2022/12/24 07:16:12;;;;;;;38.15;4.95;;;;;;;8.79;100.00;100779.75;4913052;29;20032;-77
2022/12/24 07:18:37;;;;;;;40.50;8.43;;;;;;;8.80;100.00;100782.22;4946245;28;20071;-77
2022/12/24 07:21:04;;;;;;;78.03;14.02;;;;;;;8.76;100.00;100775.72;4913517;28;20039;-77
2022/12/24 07:23:30;;;;;;;54.83;9.38;;;;;;;8.64;100.00;100779.44;4959897;28;20392;-77
2022/12/24 07:26:09;;;;;;;42.38;9.43;;;;;;;8.69;100.00;100788.38;4936540;29;20134;-77
2022/12/24 07:28:34;;;;;;;58.13;14.05;;;;;;;8.57;100.00;100790.34;4943309;28;20493;-77
2022/12/24 07:31:00;;;;;;;85.60;24.38;;;;;;;8.51;100.00;100785.75;4931336;29;20032;-76
2022/12/24 07:33:26;;;;;;;42.40;10.52;;;;;;;8.61;100.00;100796.06;4932047;29;20039;-77
2022/12/24 07:36:06;;;;;;;72.80;19.20;;;;;;;8.62;100.00;100802.03;4929978;28;20515;-77
2022/12/24 07:38:32;;;;;;;37.83;8.10;;;;;;;8.71;100.00;100803.75;4928924;28;20039;-77
2022/12/24 07:40:58;;;;;;;39.70;9.10;;;;;;;8.64;100.00;100810.44;4929735;29;20028;-78
2022/12/24 07:43:25;;;;;;;51.05;8.02;;;;;;;8.64;100.00;100811.25;4934133;29;20086;-78
2022/12/24 07:45:54;;;;;;;47.78;11.48;;;;;;;8.58;100.00;100811.84;4930072;28;20059;-77
2022/12/24 07:48:19;;;;;;;46.30;8.00;;;;;;;8.62;100.00;100828.69;4959887;28;20031;-77
2022/12/24 07:50:47;;;;;;;39.13;7.22;;;;;;;8.58;100.00;100825.56;4927931;28;20573;-77
2022/12/24 07:53:12;;;;;;;42.95;5.57;;;;;;;8.58;100.00;100827.34;4920417;29;20104;-77
2022/12/24 07:55:38;;;;;;;34.78;5.00;;;;;;;8.64;100.00;100828.53;4926740;28;20048;-78
2022/12/24 07:58:03;;;;;;;43.45;8.35;;;;;;;8.61;100.00;100827.06;4927675;29;20035;-78
2022/12/24 08:00:29;;;;;;;37.90;6.82;;;;;;;8.62;100.00;100823.50;4952288;28;20051;-78
2022/12/24 08:02:54;;;;;;;30.42;4.28;;;;;;;8.57;100.00;100821.38;4929832;29;20039;-78
2022/12/24 08:05:20;;;;;;;35.63;5.72;;;;;;;8.56;100.00;100837.00;4961819;28;20043;-78
2022/12/24 08:07:45;;;;;;;39.05;6.90;;;;;;;8.69;100.00;100837.50;4929336;29;20047;-78
2022/12/24 08:10:11;;;;;;;35.90;5.47;;;;;;;8.73;100.00;100836.25;4931460;28;20095;-78
2022/12/24 08:12:36;;;;;;;34.05;5.03;;;;;;;8.65;100.00;100849.09;4929432;29;20118;-78
2022/12/24 08:15:02;;;;;;;36.72;5.65;;;;;;;8.72;100.00;100855.31;4952977;28;20043;-78
2022/12/24 08:17:27;;;;;;;33.05;8.60;;;;;;;8.73;100.00;100867.28;4940922;28;20028;-78
2022/12/24 08:19:53;;;;;;;33.08;5.97;;;;;;;8.70;100.00;100871.91;4909683;28;20099;-78
2022/12/24 08:22:18;;;;;;;44.63;6.75;;;;;;;8.66;100.00;100868.00;4942369;28;20119;-78
2022/12/24 08:24:44;;;;;;;45.13;6.10;;;;;;;8.67;100.00;100877.38;4932553;28;20686;-78
2022/12/24 08:27:09;;;;;;;40.47;8.40;;;;;;;8.61;100.00;100883.09;4930317;28;20497;-77
2022/12/24 08:29:35;;;;;;;25.10;5.88;;;;;;;8.70;100.00;100885.69;4956498;28;20481;-78
2022/12/24 08:32:00;;;;;;;31.90;5.38;;;;;;;8.70;100.00;100885.69;4958979;28;20035;-78
2022/12/24 08:34:27;;;;;;;27.05;5.20;;;;;;;8.66;100.00;100886.09;4931773;28;20115;-78
2022/12/24 08:36:52;;;;;;;35.63;5.72;;;;;;;8.72;100.00;100894.09;4959561;28;20036;-78
2022/12/24 08:39:18;;;;;;;41.85;5.13;;;;;;;8.76;100.00;100889.47;4957037;28;20044;-78
2022/12/24 08:41:43;;;;;;;37.88;5.38;;;;;;;8.84;100.00;100891.34;4926076;29;20135;-77
2022/12/24 08:44:09;;;;;;;37.70;7.68;;;;;;;8.80;100.00;100895.13;4929856;28;20040;-77
2022/12/24 08:46:34;;;;;;;39.33;7.55;;;;;;;8.76;100.00;100903.19;4958689;28;20659;-77
2022/12/24 08:48:59;;;;;;;41.78;8.45;;;;;;;8.82;100.00;100903.59;4949915;28;20461;-77
2022/12/24 08:51:25;;;;;;;44.85;5.95;;;;;;;8.89;100.00;100902.88;4936370;28;20106;-78
2022/12/24 08:53:50;;;;;;;36.08;6.05;;;;;;;8.92;100.00;100901.78;4932339;28;20047;-78
2022/12/24 08:56:16;;;;;;;33.53;4.88;;;;;;;8.99;100.00;100899.44;4931552;28;20036;-78
2022/12/24 08:58:41;;;;;;;33.05;4.95;;;;;;;9.02;100.00;100902.53;4941188;28;20040;-77
2022/12/24 09:01:15;;;;;;;37.38;6.47;;;;;;;8.91;100.00;100898.38;4954188;28;20028;-78
2022/12/24 09:03:41;;;;;;;40.38;5.03;;;;;;;8.98;100.00;100900.41;4936817;28;20090;-78
2022/12/24 09:06:07;;;;;;;35.35;5.70;;;;;;;9.01;100.00;100911.28;4927710;29;20040;-78
2022/12/24 09:08:33;;;;;;;38.70;6.72;;;;;;;8.92;100.00;100922.47;4942385;28;20039;-78
2022/12/24 09:11:23;;;;;;;32.17;4.22;;;;;;;8.90;100.00;100919.22;4935072;28;20386;-77
2022/12/24 09:13:49;;;;;;;31.65;4.15;;;;;;;8.93;100.00;100924.13;4928073;28;20056;-78
2022/12/24 09:16:14;;;;;;;42.85;7.53;;;;;;;8.88;100.00;100941.81;4926814;29;20087;-78
2022/12/24 09:18:40;;;;;;;33.97;5.60;;;;;;;8.83;100.00;100939.63;4953757;28;20110;-78
2022/12/24 09:21:13;;;;;;;31.65;5.00;;;;;;;8.85;100.00;100936.91;4926252;29;20027;-78
2022/12/24 09:23:40;;;;;;;34.45;4.85;;;;;;;8.93;100.00;100939.63;4928981;28;20122;-78
2022/12/24 09:26:13;;;;;;;30.30;4.05;;;;;;;8.91;100.00;100937.19;4925899;29;20095;-78
2022/12/24 09:28:39;;;;;;;27.83;4.97;;;;;;;8.92;100.00;100949.13;4928515;28;20066;-78
2022/12/24 09:31:05;;;;;;;29.83;5.72;;;;;;;9.00;100.00;100956.19;4930821;29;20043;-78
2022/12/24 09:33:33;;;;;;;23.95;4.00;;;;;;;8.95;100.00;100961.00;4942181;28;20044;-78
2022/12/24 09:35:59;;;;;;;45.30;5.95;;;;;;;8.89;100.00;100962.38;4933099;29;20530;-78
2022/12/24 09:38:25;;;;;;;32.75;4.22;;;;;;;8.84;100.00;100967.13;4943074;28;20034;-78
2022/12/24 09:40:52;;;;;;;38.65;5.93;;;;;;;9.06;100.00;100984.09;4930966;28;20039;-78
2022/12/24 09:43:21;;;;;;;35.15;5.55;;;;;;;9.11;100.00;100981.06;4929076;29;20521;-78
2022/12/24 09:46:11;;;;;;;34.67;5.32;;;;;;;9.19;100.00;100981.16;4942734;28;20031;-78
2022/12/24 09:48:42;;;;;;;41.03;5.18;;;;;;;9.15;100.00;100996.19;4943235;28;20044;-78
2022/12/24 09:51:11;;;;;;;37.78;4.68;;;;;;;9.17;100.00;100996.03;4928257;28;20511;-78
2022/12/24 09:53:47;;;;;;;35.78;4.28;;;;;;;9.15;100.00;100996.19;4930276;28;20150;-79
2022/12/24 09:56:24;;;;;;;37.25;4.75;;;;;;;9.30;100.00;100991.34;4947864;28;20028;-79
2022/12/24 09:58:57;;;;;;;42.05;5.28;;;;;;;9.43;100.00;100997.97;4929950;28;20035;-78
2022/12/24 10:01:22;;;;;;;43.22;6.95;;;;;;;9.39;100.00;101004.38;4931954;29;20039;-78
2022/12/24 10:03:48;;;;;;;38.80;5.70;;;;;;;9.31;100.00;101003.31;4934090;28;20062;-77
2022/12/24 10:06:17;;;;;;;44.88;7.63;;;;;;;9.34;100.00;101012.56;4935224;29;20047;-78
2022/12/24 10:08:55;;;;;;;39.67;5.88;;;;;;;9.51;100.00;101014.41;4934159;28;20039;-77
2022/12/24 10:11:55;;;;;;;55.85;11.68;;;;;;;9.32;100.00;101017.91;4957738;28;20039;-78
2022/12/24 10:14:41;;;;;;;66.18;12.70;;;;;;;9.46;100.00;101015.81;4937936;28;20036;-78
2022/12/24 10:17:28;;;;;;;91.88;19.33;;;;;;;9.32;100.00;101030.00;4927930;29;20040;-78
2022/12/24 10:20:16;;;;;;;48.83;9.23;;;;;;;9.36;100.00;101015.81;4938933;28;20040;-78
2022/12/24 10:22:41;;;;;;;68.75;11.95;;;;;;;9.39;100.00;101036.25;4965964;28;20054;-78
2022/12/24 10:25:23;;;;;;;38.20;7.38;;;;;;;9.50;100.00;101030.91;4957940;28;20489;-78
2022/12/24 10:27:53;;;;;;;72.57;13.80;;;;;;;9.44;100.00;101028.88;4944752;28;20065;-78
2022/12/24 10:30:21;;;;;;;79.43;14.15;;;;;;;9.35;100.00;101020.19;4962452;28;20039;-77
2022/12/24 10:32:49;;;;;;;54.42;10.65;;;;;;;9.47;100.00;101020.00;4915331;29;20055;-78
2022/12/24 10:35:15;;;;;;;74.35;15.07;;;;;;;9.48;100.00;101022.47;4935481;28;20526;-78
2022/12/24 10:37:43;;;;;;;74.15;15.23;;;;;;;9.37;100.00;101017.47;4958624;28;20193;-78
2022/12/24 10:40:43;;;;;;;76.57;13.02;;;;;;;9.49;100.00;101016.34;4964633;28;20129;-77
2022/12/24 10:43:18;;;;;;;79.97;15.13;;;;;;;9.52;100.00;101010.06;4930643;29;20051;-79
2022/12/24 10:45:48;;;;;;;75.53;14.85;;;;;;;9.47;100.00;101009.66;4931507;28;20040;-77
2022/12/24 10:48:22;;;;;;;44.75;7.47;;;;;;;9.38;100.00;101015.69;4924488;29;20532;-78
2022/12/24 10:51:17;;;;;;;62.03;11.20;;;;;;;9.43;100.00;101013.50;4943242;28;20060;-78
2022/12/24 10:53:48;;;;;;;54.33;7.90;;;;;;;9.48;100.00;101001.75;4940420;28;20059;-78
2022/12/24 10:56:16;;;;;;;62.25;12.38;;;;;;;9.48;100.00;101006.94;4957303;28;20031;-78
2022/12/24 10:58:50;;;;;;;109.75;24.25;;;;;;;9.65;100.00;101007.13;4932287;28;20682;-78
2022/12/24 11:01:16;;;;;;;79.50;17.98;;;;;;;9.75;100.00;101015.66;4933992;29;20039;-78
2022/12/24 11:03:42;;;;;;;104.57;23.52;;;;;;;9.79;100.00;101009.22;4933435;28;20115;-78
2022/12/24 11:06:09;;;;;;;74.22;14.73;;;;;;;9.86;100.00;101010.25;4916726;28;20043;-78
2022/12/24 11:08:37;;;;;;;67.95;13.95;;;;;;;9.91;100.00;101012.44;4930681;28;20131;-78
2022/12/24 11:11:19;;;;;;;88.45;25.35;;;;;;;9.88;100.00;101013.53;4961588;28;20055;-78
2022/12/24 11:13:50;;;;;;;56.30;14.27;;;;;;;9.86;100.00;101004.28;4932955;28;20035;-81
2022/12/24 11:16:32;;;;;;;62.13;16.00;;;;;;;9.89;100.00;101002.22;4957527;28;20049;-78
2022/12/24 11:19:01;;;;;;;83.25;16.05;;;;;;;9.87;100.00;101006.72;4937914;28;20047;-78
2022/12/24 11:21:29;;;;;;;61.10;12.00;;;;;;;9.96;100.00;101014.56;4961644;28;20035;-78
2022/12/24 11:24:13;;;;;;;76.85;14.50;;;;;;;9.94;100.00;101007.78;4926730;29;20040;-79
2022/12/24 11:26:42;;;;;;;46.53;8.93;;;;;;;10.08;100.00;101003.03;4931501;29;20123;-80
2022/12/24 11:29:18;;;;;;;48.78;9.05;;;;;;;10.07;100.00;101011.75;4928771;28;20051;-79
2022/12/24 11:31:45;;;;;;;47.28;8.02;;;;;;;10.28;100.00;101012.31;4958486;28;20028;-79
2022/12/24 11:34:23;;;;;;;53.17;10.10;;;;;;;10.36;100.00;101005.56;4933964;28;20036;-78